createdAt,value
2023-02-15T00:01:55.798Z,1.90
2023-02-15T00:04:24.276Z,1.60
2023-02-15T00:06:51.746Z,1.90
2023-02-15T00:09:18.521Z,1.90
2023-02-15T00:11:51.284Z,1.60
2023-02-15T00:21:59.568Z,2.20
2023-02-15T00:24:27.645Z,2.10
2023-02-15T00:26:56.024Z,1.90
2023-02-15T00:29:25.527Z,2.90
2023-02-15T00:31:54.337Z,1.90
2023-02-15T00:34:26.897Z,1.70
2023-02-15T00:36:55.086Z,4.70
2023-02-15T00:39:24.909Z,2.20
2023-02-15T00:41:53.281Z,2.30
2023-02-15T00:44:21.657Z,2.30
2023-02-15T00:46:50.176Z,1.40
2023-02-15T00:49:18.756Z,2.20
2023-02-15T00:51:47.398Z,1.60
2023-02-15T00:54:15.460Z,1.80
2023-02-15T00:56:43.470Z,2.70
2023-02-15T00:59:11.474Z,1.50
2023-02-15T01:01:39.972Z,2.00
2023-02-15T01:04:08.311Z,1.80
2023-02-15T01:06:36.391Z,1.40
2023-02-15T01:09:04.795Z,1.60
2023-02-15T01:11:33.679Z,1.80
2023-02-15T01:14:04.326Z,1.80
2023-02-15T01:16:32.458Z,2.60
2023-02-15T01:19:03.733Z,2.20
2023-02-15T01:24:04.555Z,1.90
2023-02-15T01:26:33.063Z,2.20
2023-02-15T01:29:01.384Z,2.00
2023-02-15T01:31:30.245Z,1.40
2023-02-15T01:33:58.338Z,1.60
2023-02-15T01:36:26.341Z,2.10
2023-02-15T01:38:54.330Z,2.00
2023-02-15T01:41:27.277Z,1.70
2023-02-15T01:43:57.934Z,1.40
2023-02-15T01:46:36.192Z,1.70
2023-02-15T01:49:09.756Z,2.50
2023-02-15T01:51:38.605Z,2.30
2023-02-15T01:54:08.703Z,1.60
2023-02-15T01:56:38.698Z,2.40
2023-02-15T01:59:10.156Z,1.10
2023-02-15T02:01:38.897Z,0.80
2023-02-15T02:04:13.043Z,0.70
2023-02-15T02:06:41.057Z,0.90
2023-02-15T02:09:09.513Z,1.10
2023-02-15T02:11:39.834Z,0.60
2023-02-15T02:14:08.322Z,1.10
2023-02-15T02:17:17.249Z,1.40
2023-02-15T02:20:04.037Z,1.00
2023-02-15T02:22:32.784Z,1.40
2023-02-15T02:25:19.095Z,1.40
2023-02-15T02:27:53.419Z,1.60
2023-02-15T02:30:47.338Z,1.30
2023-02-15T02:33:50.922Z,2.00
2023-02-15T02:36:24.812Z,2.50
2023-02-15T02:39:14.748Z,2.10
2023-02-15T02:41:51.156Z,1.20
2023-02-15T02:44:31.722Z,1.40
2023-02-15T02:47:25.418Z,0.90
2023-02-15T02:49:59.192Z,1.20
2023-02-15T02:52:33.397Z,2.00
2023-02-15T02:55:03.618Z,1.80
2023-02-15T02:57:31.922Z,1.00
2023-02-15T03:00:00.165Z,1.50
2023-02-15T03:02:31.068Z,1.60
2023-02-15T03:05:04.685Z,1.20
2023-02-15T03:10:03.605Z,1.70
2023-02-15T03:12:39.706Z,1.90
2023-02-15T03:15:57.202Z,0.90
2023-02-15T03:18:31.352Z,1.70
2023-02-15T03:21:01.291Z,1.60
2023-02-15T03:23:30.709Z,2.80
2023-02-15T03:26:02.990Z,1.90
2023-02-15T03:28:37.859Z,1.00
2023-02-15T03:31:06.988Z,1.10
2023-02-15T03:33:37.139Z,1.50
2023-02-15T03:36:09.975Z,1.30
2023-02-15T03:39:03.647Z,2.00
2023-02-15T03:41:35.283Z,1.70
2023-02-15T03:44:10.417Z,1.30
2023-02-15T03:47:07.168Z,1.80
2023-02-15T03:49:54.238Z,31.80
2023-02-15T03:52:22.685Z,36.60
2023-02-15T03:54:51.383Z,23.40
2023-02-15T03:57:40.961Z,42.30
2023-02-15T04:00:33.809Z,14.70
2023-02-15T04:03:13.666Z,7.00
2023-02-15T04:05:43.146Z,4.50
2023-02-15T04:08:11.964Z,3.20
2023-02-15T04:10:57.239Z,4.50
2023-02-15T04:13:31.803Z,2.70
2023-02-15T04:16:07.107Z,2.10
2023-02-15T04:19:00.309Z,3.40
2023-02-15T04:21:50.209Z,3.00
2023-02-15T04:24:37.932Z,2.30
2023-02-15T04:27:06.812Z,4.40
2023-02-15T04:29:35.422Z,2.30
2023-02-15T04:32:04.051Z,3.40
2023-02-15T04:34:32.174Z,3.00
2023-02-15T04:37:00.439Z,2.00
2023-02-15T04:39:28.558Z,1.90
2023-02-15T04:41:57.068Z,2.70
2023-02-15T04:44:26.554Z,2.40
2023-02-15T04:46:56.203Z,13.80
2023-02-15T04:49:24.163Z,2.70
2023-02-15T04:51:52.169Z,2.10
2023-02-15T04:54:20.930Z,1.50
2023-02-15T04:56:49.099Z,1.90
2023-02-15T04:59:18.119Z,1.80
2023-02-15T05:01:46.220Z,2.00
2023-02-15T05:04:16.231Z,1.30
2023-02-15T05:06:44.356Z,1.30
2023-02-15T05:09:13.781Z,2.00
2023-02-15T05:11:42.721Z,1.70
2023-02-15T05:14:10.887Z,2.10
2023-02-15T05:16:40.029Z,2.30
2023-02-15T05:19:08.229Z,2.30
2023-02-15T05:21:36.774Z,3.00
2023-02-15T05:24:25.012Z,2.90
2023-02-15T05:27:13.046Z,2.60
2023-02-15T05:29:41.645Z,2.50
2023-02-15T05:32:15.382Z,1.80
2023-02-15T05:34:44.175Z,3.70
2023-02-15T05:37:12.579Z,1.80
2023-02-15T05:39:41.076Z,2.00
2023-02-15T05:42:09.048Z,2.60
2023-02-15T05:44:37.171Z,3.50
2023-02-15T05:47:08.272Z,4.20
2023-02-15T05:49:37.292Z,3.00
2023-02-15T05:52:06.180Z,2.50
2023-02-15T05:54:34.567Z,2.90
2023-02-15T05:57:03.027Z,2.20
2023-02-15T05:59:32.065Z,2.40
2023-02-15T06:02:00.168Z,1.90
2023-02-15T06:04:28.517Z,2.80
2023-02-15T06:06:56.734Z,2.10
2023-02-15T06:09:25.495Z,2.00
2023-02-15T06:11:53.573Z,2.40
2023-02-15T06:14:22.111Z,2.30
2023-02-15T06:16:50.097Z,3.30
2023-02-15T06:19:18.238Z,2.00
2023-02-15T06:21:47.368Z,2.10
2023-02-15T06:24:15.798Z,2.20
2023-02-15T06:26:45.218Z,3.00
2023-02-15T06:29:13.637Z,1.90
2023-02-15T06:31:41.930Z,4.40
2023-02-15T06:34:10.063Z,2.40
2023-02-15T06:36:38.059Z,1.90
2023-02-15T06:39:06.496Z,2.00
2023-02-15T06:41:34.720Z,3.10
2023-02-15T06:44:03.109Z,3.90
2023-02-15T06:46:31.402Z,4.30
2023-02-15T06:48:59.755Z,2.80
2023-02-15T06:51:29.275Z,5.30
2023-02-15T06:53:58.537Z,5.50
2023-02-15T06:56:27.331Z,2.90
2023-02-15T06:58:58.096Z,3.60
2023-02-15T07:01:26.335Z,3.10
2023-02-15T07:03:54.446Z,2.00
2023-02-15T07:06:34.289Z,3.50
2023-02-15T07:09:03.255Z,2.10
2023-02-15T07:11:53.332Z,3.30
2023-02-15T07:14:21.563Z,2.50
2023-02-15T07:16:51.435Z,3.00
2023-02-15T07:19:19.708Z,1.80
2023-02-15T07:21:48.197Z,6.50
2023-02-15T07:24:16.385Z,4.20
2023-02-15T07:26:47.197Z,6.20
2023-02-15T07:29:17.715Z,4.10
2023-02-15T07:31:46.336Z,3.30
2023-02-15T07:34:14.603Z,7.20
2023-02-15T07:36:45.023Z,6.00
2023-02-15T07:39:13.017Z,7.40
2023-02-15T07:41:40.946Z,3.10
2023-02-15T07:44:14.654Z,3.50
2023-02-15T07:46:42.787Z,3.10
2023-02-15T07:49:11.311Z,1.90
2023-02-15T07:51:39.448Z,2.80
2023-02-15T07:54:07.676Z,3.90
2023-02-15T07:56:37.104Z,3.50
2023-02-15T07:59:07.049Z,2.20
2023-02-15T08:01:37.997Z,2.40
2023-02-15T08:04:07.745Z,3.30
2023-02-15T08:06:37.173Z,3.30
2023-02-15T08:09:07.971Z,2.90
2023-02-15T08:11:38.831Z,3.30
2023-02-15T08:14:15.240Z,5.30
2023-02-15T08:16:51.519Z,3.80
2023-02-15T08:19:24.395Z,4.70
2023-02-15T08:21:54.522Z,3.50
2023-02-15T08:24:25.054Z,5.70
2023-02-15T08:26:54.852Z,21.10
2023-02-15T08:29:25.562Z,5.80
2023-02-15T08:31:54.902Z,6.10
2023-02-15T08:34:23.864Z,2.60
2023-02-15T08:36:52.083Z,2.90
2023-02-15T08:43:56.483Z,6.10
2023-02-15T08:46:28.093Z,4.80
2023-02-15T08:48:57.546Z,2.60
2023-02-15T08:51:27.308Z,3.20
2023-02-15T08:54:00.339Z,3.20
2023-02-15T08:56:29.896Z,2.90
2023-02-15T08:58:59.051Z,4.70
2023-02-15T09:01:29.239Z,2.00
2023-02-15T09:04:00.540Z,3.80
2023-02-15T09:06:30.321Z,2.70
2023-02-15T09:09:04.759Z,3.10
2023-02-15T09:11:43.182Z,3.20
2023-02-15T09:14:16.123Z,7.40
2023-02-15T09:16:49.585Z,6.60
2023-02-15T09:19:19.830Z,3.20
2023-02-15T09:21:48.379Z,3.00
2023-02-15T09:24:17.135Z,2.40
2023-02-15T09:26:46.955Z,2.30
2023-02-15T09:29:15.468Z,2.40
2023-02-15T09:31:47.435Z,1.20
2023-02-15T09:34:18.233Z,2.00
2023-02-15T09:36:46.410Z,1.20
2023-02-15T09:39:28.410Z,1.10
2023-02-15T09:42:10.225Z,1.60
2023-02-15T09:44:38.470Z,1.60
2023-02-15T09:47:15.727Z,1.20
2023-02-15T09:49:54.273Z,1.50
2023-02-15T09:52:50.130Z,1.50
2023-02-15T09:55:27.538Z,2.60
2023-02-15T09:58:14.052Z,1.80
2023-02-15T10:00:51.967Z,2.10
2023-02-15T10:03:50.234Z,2.90
2023-02-15T10:07:03.213Z,3.90
2023-02-15T10:09:53.357Z,2.10
2023-02-15T10:12:39.823Z,1.90
2023-02-15T10:15:40.007Z,2.10
2023-02-15T10:18:20.925Z,2.00
2023-02-15T10:21:22.446Z,2.90
2023-02-15T10:24:29.477Z,2.30
2023-02-15T10:27:02.777Z,1.60
2023-02-15T10:29:37.454Z,1.00
2023-02-15T10:32:12.633Z,2.90
2023-02-15T10:35:01.660Z,1.40
2023-02-15T10:37:36.219Z,1.50
2023-02-15T10:40:29.180Z,2.80
2023-02-15T10:43:05.384Z,1.80
2023-02-15T10:46:09.480Z,1.00
2023-02-15T10:49:00.665Z,1.60
2023-02-15T10:51:36.492Z,1.50
2023-02-15T10:54:15.328Z,1.70
2023-02-15T10:56:54.025Z,3.30
2023-02-15T10:59:37.239Z,1.10
2023-02-15T11:02:14.800Z,2.70
2023-02-15T11:04:47.038Z,2.80
2023-02-15T11:07:37.856Z,2.50
2023-02-15T11:10:26.090Z,1.70
2023-02-15T11:12:54.156Z,1.50
2023-02-15T11:15:32.686Z,2.20
2023-02-15T11:18:40.652Z,1.70
2023-02-15T11:21:12.804Z,2.10
2023-02-15T11:23:42.849Z,2.20
2023-02-15T11:26:45.526Z,2.90
2023-02-15T11:29:24.133Z,3.10
2023-02-15T11:31:56.138Z,6.30
2023-02-15T11:34:24.335Z,1.10
2023-02-15T11:36:53.446Z,2.00
2023-02-15T11:39:21.523Z,1.80
2023-02-15T11:51:19.620Z,0.90
2023-02-15T11:58:41.611Z,1.10
2023-02-15T12:01:46.489Z,1.40
2023-02-15T12:04:23.877Z,1.10
2023-02-15T12:07:02.234Z,1.50
2023-02-15T12:09:42.124Z,1.70
2023-02-15T12:12:27.096Z,2.10
2023-02-15T12:14:56.551Z,1.10
2023-02-15T12:17:27.700Z,2.10
2023-02-15T12:20:01.315Z,5.50
2023-02-15T12:22:34.235Z,0.80
2023-02-15T12:25:05.561Z,2.80
2023-02-15T12:27:35.789Z,1.40
2023-02-15T12:30:16.598Z,2.60
2023-02-15T12:37:10.520Z,2.80
2023-02-15T12:39:39.260Z,1.80
2023-02-15T12:42:17.240Z,2.30
2023-02-15T12:45:02.990Z,3.80
2023-02-15T12:47:32.281Z,2.30
2023-02-15T12:50:18.353Z,2.80
2023-02-15T12:52:48.684Z,1.30
2023-02-15T12:55:28.302Z,1.30
2023-02-15T12:58:20.502Z,1.90
2023-02-15T13:00:48.795Z,1.40
2023-02-15T13:03:22.619Z,2.20
2023-02-15T13:05:52.175Z,1.60
2023-02-15T13:08:23.083Z,1.40
2023-02-15T13:11:01.945Z,2.00
2023-02-15T13:13:49.458Z,1.20
2023-02-15T13:16:17.831Z,1.80
2023-02-15T13:18:46.957Z,2.90
2023-02-15T13:21:23.383Z,2.00
2023-02-15T13:23:58.403Z,2.20
2023-02-15T13:26:28.629Z,1.70
2023-02-15T13:28:57.914Z,2.80
2023-02-15T13:34:32.216Z,3.60
2023-02-15T13:37:05.522Z,2.20
2023-02-15T13:39:41.478Z,2.90
2023-02-15T13:42:21.442Z,2.10
2023-02-15T13:45:13.415Z,1.60
2023-02-15T13:47:43.182Z,2.90
2023-02-15T13:50:35.051Z,2.40
2023-02-15T13:53:08.269Z,2.40
2023-02-15T13:55:59.982Z,2.40
2023-02-15T13:58:51.474Z,2.30
2023-02-15T14:01:43.907Z,3.00
2023-02-15T14:04:19.598Z,3.30
2023-02-15T14:06:59.050Z,2.40
2023-02-15T14:09:48.116Z,4.30
2023-02-15T14:12:53.153Z,3.60
2023-02-15T14:15:41.518Z,3.40
2023-02-15T14:18:24.176Z,2.60
2023-02-15T14:20:57.732Z,2.30
2023-02-15T14:23:30.205Z,2.80
2023-02-15T14:26:14.563Z,2.90
2023-02-15T14:28:51.640Z,9.10
2023-02-15T14:31:20.934Z,6.10
2023-02-15T14:33:54.993Z,6.20
2023-02-15T14:36:22.311Z,7.10
2023-02-15T14:38:55.480Z,7.50
2023-02-15T14:41:25.074Z,3.50
2023-02-15T14:44:15.597Z,2.80
2023-02-15T14:46:56.079Z,3.70
2023-02-15T14:49:30.194Z,4.50
2023-02-15T14:51:59.960Z,4.60
2023-02-15T14:54:30.110Z,4.90
2023-02-15T14:57:02.780Z,4.10
2023-02-15T14:59:46.612Z,3.00
2023-02-15T15:02:18.372Z,3.80
2023-02-15T15:04:55.789Z,4.90
2023-02-15T15:07:23.398Z,3.00
2023-02-15T15:10:02.733Z,4.10
2023-02-15T15:12:32.974Z,3.50
2023-02-15T15:15:01.710Z,5.20
2023-02-15T15:17:31.867Z,4.00
2023-02-15T15:20:07.816Z,3.20
2023-02-15T15:22:35.778Z,6.30
2023-02-15T15:25:03.645Z,5.00
2023-02-15T15:27:56.172Z,3.40
2023-02-15T15:30:30.939Z,7.90
2023-02-15T15:33:02.457Z,3.10
2023-02-15T15:35:48.504Z,3.30
2023-02-15T15:38:46.368Z,3.40
2023-02-15T15:41:39.517Z,4.30
2023-02-15T15:44:34.964Z,3.10
2023-02-15T15:47:24.152Z,3.60
2023-02-15T15:49:56.924Z,3.10
2023-02-15T15:52:26.565Z,4.80
2023-02-15T15:54:57.929Z,5.40
2023-02-15T15:57:38.650Z,4.50
2023-02-15T16:00:18.756Z,11.10
2023-02-15T16:02:53.175Z,5.20
2023-02-15T16:05:20.671Z,5.50
2023-02-15T16:07:47.537Z,6.50
2023-02-15T16:10:36.395Z,4.70
2023-02-15T16:13:03.122Z,5.30
2023-02-15T16:15:37.488Z,5.40
2023-02-15T16:18:04.656Z,5.20
2023-02-15T16:20:36.286Z,3.60
2023-02-15T16:23:07.928Z,4.80
2023-02-15T16:26:01.096Z,4.80
2023-02-15T16:28:28.641Z,5.30
2023-02-15T16:31:10.606Z,6.20
2023-02-15T16:33:42.463Z,5.50
2023-02-15T16:36:12.019Z,9.20
2023-02-15T16:38:42.793Z,5.60
2023-02-15T16:41:17.535Z,4.40
2023-02-15T16:43:45.574Z,5.10
2023-02-15T16:46:24.351Z,4.70
2023-02-15T16:48:52.461Z,4.40
2023-02-15T16:51:22.251Z,4.10
2023-02-15T16:53:49.295Z,4.20
2023-02-15T16:56:18.203Z,3.70
2023-02-15T16:58:45.698Z,8.30
2023-02-15T17:01:14.129Z,4.70
2023-02-15T17:03:42.419Z,4.10
2023-02-15T17:06:30.030Z,4.40
2023-02-15T17:09:06.339Z,5.00
2023-02-15T17:11:35.667Z,6.00
2023-02-15T17:14:09.094Z,5.40
2023-02-15T17:17:15.511Z,5.30
2023-02-15T17:19:53.755Z,6.00
2023-02-15T17:22:23.252Z,4.50
2023-02-15T17:24:53.134Z,5.00
2023-02-15T17:27:25.551Z,5.90
2023-02-15T17:29:58.301Z,6.50
2023-02-15T17:32:27.862Z,11.90
2023-02-15T17:35:27.442Z,13.30
2023-02-15T17:38:04.187Z,7.90
2023-02-15T17:40:35.510Z,7.40
2023-02-15T17:43:02.776Z,9.90
2023-02-15T17:45:35.358Z,5.20
2023-02-15T17:48:03.933Z,8.60
2023-02-15T17:50:31.133Z,6.00
2023-02-15T17:52:58.878Z,7.80
2023-02-15T17:55:35.805Z,5.70
2023-02-15T17:58:05.432Z,7.20
2023-02-15T18:00:52.976Z,8.00
2023-02-15T18:03:38.924Z,5.20
2023-02-15T18:06:24.787Z,3.90
2023-02-15T18:09:12.518Z,10.40
2023-02-15T18:11:48.297Z,6.10
2023-02-15T18:14:15.057Z,4.20
2023-02-15T18:16:42.804Z,3.70
2023-02-15T18:19:12.991Z,4.30
2023-02-15T18:21:39.988Z,4.80
2023-02-15T18:24:16.624Z,3.40
2023-02-15T18:26:43.596Z,4.10
2023-02-15T18:29:10.223Z,4.00
2023-02-15T18:31:37.444Z,5.60
2023-02-15T18:34:04.785Z,8.80
2023-02-15T18:36:42.156Z,12.30
2023-02-15T18:39:43.221Z,7.70
2023-02-15T18:42:46.252Z,4.30
2023-02-15T18:45:14.390Z,3.90
2023-02-15T18:47:42.038Z,4.50
2023-02-15T18:50:09.493Z,5.00
2023-02-15T18:52:37.176Z,4.30
2023-02-15T18:55:16.232Z,4.40
2023-02-15T18:57:44.680Z,4.20
2023-02-15T19:00:28.022Z,5.70
2023-02-15T19:02:56.289Z,4.50
2023-02-15T19:05:23.633Z,4.60
2023-02-15T19:07:50.726Z,5.40
2023-02-15T19:10:20.621Z,3.70
2023-02-15T19:12:48.027Z,7.10
2023-02-15T19:15:16.245Z,4.80
2023-02-15T19:17:43.658Z,4.00
2023-02-15T19:20:19.136Z,4.60
2023-02-15T19:22:47.667Z,7.90
2023-02-15T19:25:19.095Z,4.90
2023-02-15T19:27:46.415Z,7.70
2023-02-15T19:30:30.527Z,9.50
2023-02-15T19:32:58.175Z,7.90
2023-02-15T19:35:26.583Z,8.60
2023-02-15T19:37:54.985Z,6.20
2023-02-15T19:40:22.865Z,5.60
2023-02-15T19:42:49.733Z,4.30
2023-02-15T19:45:21.211Z,5.20
2023-02-15T19:47:48.289Z,3.60
2023-02-15T19:50:21.076Z,4.00
2023-02-15T19:52:47.891Z,4.50
2023-02-15T19:55:41.586Z,4.70
2023-02-15T19:58:10.899Z,4.40
2023-02-15T20:00:37.904Z,4.70
2023-02-15T20:03:05.417Z,4.40
2023-02-15T20:05:33.830Z,5.80
2023-02-15T20:08:00.828Z,7.90
2023-02-15T20:10:29.174Z,7.80
2023-02-15T20:12:56.472Z,5.80
2023-02-15T20:15:25.421Z,10.40
2023-02-15T20:17:53.028Z,12.90
2023-02-15T20:20:20.873Z,8.10
2023-02-15T20:22:51.002Z,5.60
2023-02-15T20:25:25.944Z,5.50
2023-02-15T20:27:52.862Z,4.80
2023-02-15T20:30:21.861Z,5.40
2023-02-15T20:32:48.768Z,5.70
2023-02-15T20:35:20.286Z,4.70
2023-02-15T20:37:49.298Z,4.90
2023-02-15T20:40:18.403Z,6.50
2023-02-15T20:42:45.283Z,5.30
2023-02-15T20:45:16.388Z,6.80
2023-02-15T20:47:47.863Z,4.60
2023-02-15T20:50:22.175Z,5.00
2023-02-15T20:52:52.481Z,4.80
2023-02-15T20:55:24.413Z,4.30
2023-02-15T20:57:51.541Z,4.90
2023-02-15T21:00:20.644Z,4.50
2023-02-15T21:02:48.464Z,3.40
2023-02-15T21:05:23.239Z,4.70
2023-02-15T21:07:51.036Z,3.30
2023-02-15T21:10:19.880Z,4.00
2023-02-15T21:12:46.964Z,5.30
2023-02-15T21:15:26.840Z,4.30
2023-02-15T21:17:54.453Z,3.20
2023-02-15T21:20:21.659Z,4.00
2023-02-15T21:22:48.945Z,3.70
2023-02-15T21:25:18.768Z,5.50
2023-02-15T21:27:45.644Z,4.20
2023-02-15T21:30:16.784Z,4.30
2023-02-15T21:32:44.298Z,4.30
2023-02-15T21:35:12.938Z,4.90
2023-02-15T21:37:40.360Z,5.80
2023-02-15T21:40:13.289Z,4.90
2023-02-15T21:42:58.863Z,4.20
2023-02-15T21:45:44.398Z,6.10
2023-02-15T21:48:11.550Z,4.90
2023-02-15T21:50:57.230Z,6.60
2023-02-15T21:53:32.315Z,6.10
2023-02-15T21:56:01.656Z,5.10
2023-02-15T21:58:31.060Z,6.20
2023-02-15T22:00:58.873Z,6.60
2023-02-15T22:03:36.419Z,7.20
2023-02-15T22:06:04.489Z,6.70
2023-02-15T22:08:31.147Z,5.90
2023-02-15T22:11:01.686Z,7.00
2023-02-15T22:13:31.432Z,7.10
2023-02-15T22:15:58.481Z,5.90
2023-02-15T22:18:27.490Z,5.60
2023-02-15T22:20:54.580Z,5.60
2023-02-15T22:23:22.255Z,5.20
2023-02-15T22:25:54.587Z,5.80
2023-02-15T22:28:41.212Z,4.80
2023-02-15T22:31:13.845Z,7.40
2023-02-15T22:33:40.794Z,4.10
2023-02-15T22:36:22.773Z,6.30
2023-02-15T22:38:50.191Z,8.10
2023-02-15T22:41:17.462Z,9.80
2023-02-15T22:43:45.767Z,10.40
2023-02-15T22:46:23.187Z,9.80
2023-02-15T22:48:51.125Z,8.00
2023-02-15T22:51:22.820Z,12.00
2023-02-15T22:53:51.637Z,12.40
2023-02-15T22:56:26.640Z,14.00
2023-02-15T22:59:01.041Z,11.90
2023-02-15T23:01:32.378Z,10.50
2023-02-15T23:04:02.749Z,7.30
2023-02-15T23:06:33.761Z,9.40
2023-02-15T23:09:02.702Z,6.70
2023-02-15T23:11:30.181Z,6.30
2023-02-15T23:13:58.567Z,5.90
2023-02-15T23:16:25.267Z,5.30
2023-02-15T23:18:52.111Z,7.50
2023-02-15T23:21:21.111Z,5.30
2023-02-15T23:23:58.568Z,5.50
2023-02-15T23:26:27.818Z,6.00
2023-02-15T23:28:55.954Z,5.90
2023-02-15T23:31:24.662Z,4.90
2023-02-15T23:33:52.138Z,4.50
2023-02-15T23:36:30.310Z,5.60
2023-02-15T23:39:19.320Z,6.00
2023-02-15T23:41:46.148Z,6.80
2023-02-15T23:44:13.144Z,6.10
2023-02-15T23:46:40.653Z,6.00
2023-02-15T23:49:14.234Z,6.70
2023-02-15T23:51:42.344Z,5.90
2023-02-15T23:54:09.835Z,5.10
2023-02-15T23:56:36.593Z,7.10
2023-02-15T23:59:03.463Z,6.00
